Essex Junction, Vermont
Current Conditions -  °F | °C
As of 8:54 PM on Sunday 25 Jan 2015 (Local Time) from KBTV Reporting Station
Clear Clear  
Wind Chill: -4°   Ceiling: Unl
Heat Index:   Visibility: 10mi
Dew Point: -4°   Wind: 5mph
Humidity: 66%   Direction: 100°E
Pressure: 30.07"   Gusts: NA
Location:  44.49°N, 73.11°W
Report Text: KBTV 260154Z 10004KT 10SM CLR M15/M20 A3007 RMK AO2 SLP190 T11501200
Loading
Personal Weather Stations






























Interactive Weather Map New forecast layout! Learn more

10-Day Weather Forecast

Advertisements
Track Severe Weather on mobile